sensor_id;sensor_type;location;lat;lon;timestamp;pressure;altitude;pressure_sealevel;temperature;humidity
55456;BME280;63021;52.836;6.376;2023-06-14T00:01:49;101722.13;;;17.32;41.78
55456;BME280;63021;52.836;6.376;2023-06-14T00:04:15;101715.06;;;17.23;42.00
55456;BME280;63021;52.836;6.376;2023-06-14T00:06:42;101719.09;;;17.19;41.86
55456;BME280;63021;52.836;6.376;2023-06-14T00:09:10;101723.47;;;17.11;42.13
55456;BME280;63021;52.836;6.376;2023-06-14T00:11:35;101720.44;;;17.06;42.39
55456;BME280;63021;52.836;6.376;2023-06-14T00:14:01;101720.13;;;17.01;42.52
55456;BME280;63021;52.836;6.376;2023-06-14T00:16:28;101718.94;;;16.95;42.63
55456;BME280;63021;52.836;6.376;2023-06-14T00:18:53;101724.81;;;16.91;42.84
55456;BME280;63021;52.836;6.376;2023-06-14T00:21:18;101714.38;;;16.88;42.67
55456;BME280;63021;52.836;6.376;2023-06-14T00:23:44;101723.75;;;16.84;42.95
55456;BME280;63021;52.836;6.376;2023-06-14T00:26:09;101718.22;;;16.77;43.11
55456;BME280;63021;52.836;6.376;2023-06-14T00:28:35;101726.81;;;16.72;43.15
55456;BME280;63021;52.836;6.376;2023-06-14T00:31:01;101719.53;;;16.65;43.21
55456;BME280;63021;52.836;6.376;2023-06-14T00:33:26;101727.13;;;16.61;43.24
55456;BME280;63021;52.836;6.376;2023-06-14T00:35:51;101728.78;;;16.54;43.66
55456;BME280;63021;52.836;6.376;2023-06-14T00:38:19;101735.50;;;16.50;44.02
55456;BME280;63021;52.836;6.376;2023-06-14T00:40:45;101731.09;;;16.49;44.02
55456;BME280;63021;52.836;6.376;2023-06-14T00:43:10;101739.50;;;16.45;44.07
55456;BME280;63021;52.836;6.376;2023-06-14T00:45:35;101735.47;;;16.41;44.08
55456;BME280;63021;52.836;6.376;2023-06-14T00:48:01;101735.78;;;16.38;44.16
55456;BME280;63021;52.836;6.376;2023-06-14T00:50:28;101737.44;;;16.31;44.07
55456;BME280;63021;52.836;6.376;2023-06-14T00:52:55;101731.72;;;16.26;44.79
55456;BME280;63021;52.836;6.376;2023-06-14T00:55:21;101731.38;;;16.21;44.49
55456;BME280;63021;52.836;6.376;2023-06-14T00:57:47;101731.69;;;16.18;45.19
55456;BME280;63021;52.836;6.376;2023-06-14T01:00:13;101725.97;;;16.13;44.51
55456;BME280;63021;52.836;6.376;2023-06-14T01:02:39;101726.94;;;16.03;44.85
55456;BME280;63021;52.836;6.376;2023-06-14T01:05:06;101728.09;;;16.01;45.38
55456;BME280;63021;52.836;6.376;2023-06-14T01:07:54;101743.34;;;16.00;45.66
55456;BME280;63021;52.836;6.376;2023-06-14T01:13:40;101746.03;;;15.92;45.91
55456;BME280;63021;52.836;6.376;2023-06-14T01:16:08;101742.28;;;15.85;45.59
55456;BME280;63021;52.836;6.376;2023-06-14T01:18:34;101749.66;;;15.83;46.34
55456;BME280;63021;52.836;6.376;2023-06-14T01:21:00;101742.06;;;15.78;46.61
55456;BME280;63021;52.836;6.376;2023-06-14T01:23:31;101745.88;;;15.75;46.73
55456;BME280;63021;52.836;6.376;2023-06-14T01:25:58;101746.22;;;15.72;46.86
55456;BME280;63021;52.836;6.376;2023-06-14T01:28:26;101743.16;;;15.67;47.05
55456;BME280;63021;52.836;6.376;2023-06-14T01:30:59;101740.78;;;15.64;47.04
55456;BME280;63021;52.836;6.376;2023-06-14T01:33:29;101740.44;;;15.59;46.98
55456;BME280;63021;52.836;6.376;2023-06-14T01:35:56;101746.13;;;15.56;47.05
55456;BME280;63021;52.836;6.376;2023-06-14T01:38:24;101745.59;;;15.52;47.40
55456;BME280;63021;52.836;6.376;2023-06-14T01:40:51;101748.59;;;15.49;48.00
55456;BME280;63021;52.836;6.376;2023-06-14T01:43:18;101740.16;;;15.44;47.74
55456;BME280;63021;52.836;6.376;2023-06-14T01:45:47;101746.22;;;15.46;48.33
55456;BME280;63021;52.836;6.376;2023-06-14T01:48:14;101744.69;;;15.44;48.25
55456;BME280;63021;52.836;6.376;2023-06-14T01:50:39;101746.53;;;15.43;48.31
55456;BME280;63021;52.836;6.376;2023-06-14T01:53:09;101746.00;;;15.39;48.44
55456;BME280;63021;52.836;6.376;2023-06-14T01:55:35;101744.63;;;15.35;48.26
55456;BME280;63021;52.836;6.376;2023-06-14T01:58:03;101748.16;;;15.36;48.77
55456;BME280;63021;52.836;6.376;2023-06-14T02:00:29;101749.31;;;15.33;48.88
55456;BME280;63021;52.836;6.376;2023-06-14T02:02:54;101753.97;;;15.31;48.89
55456;BME280;63021;52.836;6.376;2023-06-14T02:05:21;101744.59;;;15.27;49.13
55456;BME280;63021;52.836;6.376;2023-06-14T02:07:46;101751.91;;;15.25;49.27
55456;BME280;63021;52.836;6.376;2023-06-14T02:10:12;101754.59;;;15.25;49.63
55456;BME280;63021;52.836;6.376;2023-06-14T02:12:37;101746.31;;;15.18;49.42
55456;BME280;63021;52.836;6.376;2023-06-14T02:15:03;101753.84;;;15.15;48.92
55456;BME280;63021;52.836;6.376;2023-06-14T02:17:29;101758.38;;;15.14;49.17
55456;BME280;63021;52.836;6.376;2023-06-14T02:19:54;101753.47;;;15.10;49.26
55456;BME280;63021;52.836;6.376;2023-06-14T02:22:22;101754.47;;;15.09;50.12
55456;BME280;63021;52.836;6.376;2023-06-14T02:24:48;101760.13;;;15.05;50.08
55456;BME280;63021;52.836;6.376;2023-06-14T02:27:13;101748.06;;;15.01;50.29
55456;BME280;63021;52.836;6.376;2023-06-14T02:29:38;101753.56;;;15.00;49.95
55456;BME280;63021;52.836;6.376;2023-06-14T02:32:04;101762.75;;;14.97;50.48
55456;BME280;63021;52.836;6.376;2023-06-14T02:34:30;101754.00;;;14.95;50.06
55456;BME280;63021;52.836;6.376;2023-06-14T02:36:55;101754.31;;;14.92;50.43
55456;BME280;63021;52.836;6.376;2023-06-14T02:39:22;101757.31;;;14.89;50.88
55456;BME280;63021;52.836;6.376;2023-06-14T02:41:51;101747.06;;;14.84;50.61
55456;BME280;63021;52.836;6.376;2023-06-14T02:44:24;101753.56;;;14.82;51.30
55456;BME280;63021;52.836;6.376;2023-06-14T02:46:50;101750.03;;;14.81;51.04
55456;BME280;63021;52.836;6.376;2023-06-14T02:49:16;101753.00;;;14.78;50.65
55456;BME280;63021;52.836;6.376;2023-06-14T02:51:41;101745.97;;;14.77;51.35
55456;BME280;63021;52.836;6.376;2023-06-14T02:54:07;101757.84;;;14.75;51.40
55456;BME280;63021;52.836;6.376;2023-06-14T02:56:32;101762.38;;;14.74;51.04
55456;BME280;63021;52.836;6.376;2023-06-14T02:58:57;101765.22;;;14.72;51.53
55456;BME280;63021;52.836;6.376;2023-06-14T03:01:25;101763.81;;;14.68;51.66
55456;BME280;63021;52.836;6.376;2023-06-14T03:03:59;101771.16;;;14.66;51.55
55456;BME280;63021;52.836;6.376;2023-06-14T03:06:25;101769.59;;;14.64;51.69
55456;BME280;63021;52.836;6.376;2023-06-14T03:08:50;101775.13;;;14.62;51.87
55456;BME280;63021;52.836;6.376;2023-06-14T03:11:16;101768.34;;;14.58;52.34
55456;BME280;63021;52.836;6.376;2023-06-14T03:13:45;101764.97;;;14.56;51.92
55456;BME280;63021;52.836;6.376;2023-06-14T03:16:12;101768.66;;;14.55;52.63
55456;BME280;63021;52.836;6.376;2023-06-14T03:18:37;101775.03;;;14.54;51.99
55456;BME280;63021;52.836;6.376;2023-06-14T03:21:03;101777.97;;;14.51;52.30
55456;BME280;63021;52.836;6.376;2023-06-14T03:23:28;101773.78;;;14.48;52.55
55456;BME280;63021;52.836;6.376;2023-06-14T03:25:53;101777.28;;;14.49;53.04
55456;BME280;63021;52.836;6.376;2023-06-14T03:28:19;101786.47;;;14.46;53.10
55456;BME280;63021;52.836;6.376;2023-06-14T03:30:45;101780.28;;;14.46;52.72
55456;BME280;63021;52.836;6.376;2023-06-14T03:33:10;101782.25;;;14.44;53.03
55456;BME280;63021;52.836;6.376;2023-06-14T03:35:36;101784.09;;;14.43;53.44
55456;BME280;63021;52.836;6.376;2023-06-14T03:38:01;101786.78;;;14.43;52.65
55456;BME280;63021;52.836;6.376;2023-06-14T03:40:28;101790.44;;;14.42;54.09
55456;BME280;63021;52.836;6.376;2023-06-14T03:42:54;101796.66;;;14.43;53.38
55456;BME280;63021;52.836;6.376;2023-06-14T03:45:20;101789.06;;;14.38;53.71
55456;BME280;63021;52.836;6.376;2023-06-14T03:47:46;101797.78;;;14.40;54.06
55456;BME280;63021;52.836;6.376;2023-06-14T03:50:11;101803.16;;;14.40;54.12
55456;BME280;63021;52.836;6.376;2023-06-14T03:52:37;101791.88;;;14.36;53.66
55456;BME280;63021;52.836;6.376;2023-06-14T03:55:03;101796.09;;;14.39;54.10
55456;BME280;63021;52.836;6.376;2023-06-14T03:57:29;101798.94;;;14.37;54.36
55456;BME280;63021;52.836;6.376;2023-06-14T03:59:55;101802.59;;;14.36;54.75
55456;BME280;63021;52.836;6.376;2023-06-14T04:02:20;101804.44;;;14.36;54.38
55456;BME280;63021;52.836;6.376;2023-06-14T04:04:46;101807.81;;;14.38;54.78
55456;BME280;63021;52.836;6.376;2023-06-14T04:07:12;101811.03;;;14.42;54.62
55456;BME280;63021;52.836;6.376;2023-06-14T04:09:39;101814.53;;;14.42;55.31
55456;BME280;63021;52.836;6.376;2023-06-14T04:12:05;101822.31;;;14.45;54.89
55456;BME280;63021;52.836;6.376;2023-06-14T04:14:31;101822.31;;;14.45;54.74
55456;BME280;63021;52.836;6.376;2023-06-14T04:16:58;101822.00;;;14.48;54.61
55456;BME280;63021;52.836;6.376;2023-06-14T04:19:23;101831.56;;;14.51;54.87
55456;BME280;63021;52.836;6.376;2023-06-14T04:21:49;101822.53;;;14.52;55.08
55456;BME280;63021;52.836;6.376;2023-06-14T04:24:15;101831.00;;;14.57;54.70
55456;BME280;63021;52.836;6.376;2023-06-14T04:26:44;101831.66;;;14.59;54.89
55456;BME280;63021;52.836;6.376;2023-06-14T04:29:10;101835.78;;;14.63;54.89
55456;BME280;63021;52.836;6.376;2023-06-14T04:31:43;101841.84;;;14.65;55.56
55456;BME280;63021;52.836;6.376;2023-06-14T04:34:09;101838.88;;;14.68;54.93
55456;BME280;63021;52.836;6.376;2023-06-14T04:36:41;101852.19;;;14.78;55.43
55456;BME280;63021;52.836;6.376;2023-06-14T04:39:17;101851.59;;;14.84;55.38
55456;BME280;63021;52.836;6.376;2023-06-14T04:41:43;101845.09;;;14.87;55.07
55456;BME280;63021;52.836;6.376;2023-06-14T04:44:09;101854.06;;;14.96;55.78
55456;BME280;63021;52.836;6.376;2023-06-14T04:46:35;101860.38;;;15.04;56.15
55456;BME280;63021;52.836;6.376;2023-06-14T04:49:09;101853.56;;;15.10;55.83
55456;BME280;63021;52.836;6.376;2023-06-14T04:51:35;101862.69;;;15.17;56.00
55456;BME280;63021;52.836;6.376;2023-06-14T04:54:02;101868.97;;;15.26;55.60
55456;BME280;63021;52.836;6.376;2023-06-14T04:56:28;101866.50;;;15.33;55.70
55456;BME280;63021;52.836;6.376;2023-06-14T04:58:55;101865.75;;;15.40;56.07
55456;BME280;63021;52.836;6.376;2023-06-14T05:01:22;101862.81;;;15.52;55.64
55456;BME280;63021;52.836;6.376;2023-06-14T05:03:48;101867.41;;;15.59;55.73
55456;BME280;63021;52.836;6.376;2023-06-14T05:06:15;101859.28;;;15.69;55.69
55456;BME280;63021;52.836;6.376;2023-06-14T05:08:41;101868.94;;;15.80;55.42
55456;BME280;63021;52.836;6.376;2023-06-14T05:11:06;101876.91;;;15.90;55.48
55456;BME280;63021;52.836;6.376;2023-06-14T05:13:32;101871.75;;;15.97;55.58
55456;BME280;63021;52.836;6.376;2023-06-14T05:15:58;101876.16;;;16.06;54.45
55456;BME280;63021;52.836;6.376;2023-06-14T05:18:24;101869.31;;;16.11;54.93
55456;BME280;63021;52.836;6.376;2023-06-14T05:20:50;101876.28;;;16.22;54.63
55456;BME280;63021;52.836;6.376;2023-06-14T05:23:16;101879.03;;;16.31;54.93
55456;BME280;63021;52.836;6.376;2023-06-14T05:25:43;101878.88;;;16.40;54.48
55456;BME280;63021;52.836;6.376;2023-06-14T05:28:08;101883.63;;;16.47;53.92
55456;BME280;63021;52.836;6.376;2023-06-14T05:30:34;101880.97;;;16.55;53.44
55456;BME280;63021;52.836;6.376;2023-06-14T05:33:00;101878.00;;;16.66;53.14
55456;BME280;63021;52.836;6.376;2023-06-14T05:35:25;101873.00;;;16.71;53.11
55456;BME280;63021;52.836;6.376;2023-06-14T05:37:52;101881.59;;;16.83;53.19
55456;BME280;63021;52.836;6.376;2023-06-14T05:40:19;101887.88;;;16.92;53.30
55456;BME280;63021;52.836;6.376;2023-06-14T05:42:45;101885.53;;;16.97;52.60
55456;BME280;63021;52.836;6.376;2023-06-14T05:45:10;101886.41;;;17.06;53.06
55456;BME280;63021;52.836;6.376;2023-06-14T05:47:36;101888.25;;;17.13;52.55
55456;BME280;63021;52.836;6.376;2023-06-14T05:50:01;101883.06;;;17.20;51.87
55456;BME280;63021;52.836;6.376;2023-06-14T05:52:27;101888.47;;;17.28;51.95
55456;BME280;63021;52.836;6.376;2023-06-14T05:54:53;101889.50;;;17.36;52.05
55456;BME280;63021;52.836;6.376;2023-06-14T05:57:18;101891.34;;;17.43;51.55
55456;BME280;63021;52.836;6.376;2023-06-14T05:59:44;101892.34;;;17.51;51.39
55456;BME280;63021;52.836;6.376;2023-06-14T06:02:10;101895.91;;;17.59;51.46
55456;BME280;63021;52.836;6.376;2023-06-14T06:04:35;101892.53;;;17.65;51.34
55456;BME280;63021;52.836;6.376;2023-06-14T06:07:01;101897.75;;;17.75;51.17
55456;BME280;63021;52.836;6.376;2023-06-14T06:09:26;101897.56;;;17.85;51.41
55456;BME280;63021;52.836;6.376;2023-06-14T06:11:51;101899.78;;;17.98;51.11
55456;BME280;63021;52.836;6.376;2023-06-14T06:14:17;101901.63;;;18.06;50.80
55456;BME280;63021;52.836;6.376;2023-06-14T06:16:42;101898.09;;;18.13;50.59
55456;BME280;63021;52.836;6.376;2023-06-14T06:19:08;101903.78;;;18.18;49.84
55456;BME280;63021;52.836;6.376;2023-06-14T06:21:33;101901.09;;;18.27;49.55
55456;BME280;63021;52.836;6.376;2023-06-14T06:23:59;101896.69;;;18.34;49.26
55456;BME280;63021;52.836;6.376;2023-06-14T06:26:24;101898.19;;;18.45;49.45
55456;BME280;63021;52.836;6.376;2023-06-14T06:28:51;101901.00;;;18.51;49.29
55456;BME280;63021;52.836;6.376;2023-06-14T06:31:16;101899.81;;;18.62;48.85
55456;BME280;63021;52.836;6.376;2023-06-14T06:33:42;101897.72;;;18.73;48.79
55456;BME280;63021;52.836;6.376;2023-06-14T06:36:07;101907.44;;;18.82;48.02
55456;BME280;63021;52.836;6.376;2023-06-14T06:38:32;101896.47;;;18.92;48.06
55456;BME280;63021;52.836;6.376;2023-06-14T06:40:58;101898.50;;;18.98;47.79
55456;BME280;63021;52.836;6.376;2023-06-14T06:43:23;101902.47;;;19.10;47.95
55456;BME280;63021;52.836;6.376;2023-06-14T06:45:48;101901.59;;;19.18;47.65
55456;BME280;63021;52.836;6.376;2023-06-14T06:48:14;101901.50;;;19.26;48.00
55456;BME280;63021;52.836;6.376;2023-06-14T06:50:43;101912.41;;;19.41;48.17
55456;BME280;63021;52.836;6.376;2023-06-14T06:53:09;101912.31;;;19.49;47.17
55456;BME280;63021;52.836;6.376;2023-06-14T06:55:34;101916.28;;;19.62;47.17
55456;BME280;63021;52.836;6.376;2023-06-14T06:57:59;101916.88;;;19.72;46.71
55456;BME280;63021;52.836;6.376;2023-06-14T07:00:25;101926.47;;;19.83;46.51
55456;BME280;63021;52.836;6.376;2023-06-14T07:02:51;101920.97;;;19.91;45.51
55456;BME280;63021;52.836;6.376;2023-06-14T07:05:17;101928.34;;;19.97;44.75
55456;BME280;63021;52.836;6.376;2023-06-14T07:07:43;101926.88;;;20.10;44.75
55456;BME280;63021;52.836;6.376;2023-06-14T07:10:08;101932.41;;;20.16;45.36
55456;BME280;63021;52.836;6.376;2023-06-14T07:12:34;101931.94;;;20.28;44.61
55456;BME280;63021;52.836;6.376;2023-06-14T07:15:05;101941.81;;;20.35;43.89
55456;BME280;63021;52.836;6.376;2023-06-14T07:17:31;101938.22;;;20.43;44.44
55456;BME280;63021;52.836;6.376;2023-06-14T07:19:57;101935.78;;;20.48;43.65
55456;BME280;63021;52.836;6.376;2023-06-14T07:22:23;101940.28;;;20.56;43.87
55456;BME280;63021;52.836;6.376;2023-06-14T07:24:48;101943.25;;;20.61;43.98
55456;BME280;63021;52.836;6.376;2023-06-14T07:27:14;101934.56;;;20.66;43.37
55456;BME280;63021;52.836;6.376;2023-06-14T07:29:39;101932.81;;;20.73;42.69
55456;BME280;63021;52.836;6.376;2023-06-14T07:32:05;101929.38;;;20.79;42.88
55456;BME280;63021;52.836;6.376;2023-06-14T07:34:31;101937.38;;;20.87;42.92
55456;BME280;63021;52.836;6.376;2023-06-14T07:36:56;101934.94;;;20.92;42.57
55456;BME280;63021;52.836;6.376;2023-06-14T07:39:22;101928.75;;;20.99;42.15
55456;BME280;63021;52.836;6.376;2023-06-14T07:41:48;101933.63;;;21.03;41.84
55456;BME280;63021;52.836;6.376;2023-06-14T07:44:13;101935.75;;;21.08;41.92
55456;BME280;63021;52.836;6.376;2023-06-14T07:46:39;101936.00;;;21.13;41.51
55456;BME280;63021;52.836;6.376;2023-06-14T07:49:05;101931.06;;;21.17;41.44
55456;BME280;63021;52.836;6.376;2023-06-14T07:51:32;101933.84;;;21.23;41.70
55456;BME280;63021;52.836;6.376;2023-06-14T07:53:59;101936.63;;;21.30;41.15
55456;BME280;63021;52.836;6.376;2023-06-14T07:56:26;101938.56;;;21.36;41.65
55456;BME280;63021;52.836;6.376;2023-06-14T07:58:51;101939.50;;;21.43;41.51
55456;BME280;63021;52.836;6.376;2023-06-14T08:01:17;101937.53;;;21.52;41.23
55456;BME280;63021;52.836;6.376;2023-06-14T08:03:43;101945.69;;;21.59;40.97
55456;BME280;63021;52.836;6.376;2023-06-14T08:06:08;101932.22;;;21.66;40.60
55456;BME280;63021;52.836;6.376;2023-06-14T08:08:33;101937.72;;;21.72;40.30
55456;BME280;63021;52.836;6.376;2023-06-14T08:10:59;101951.50;;;21.77;40.38
55456;BME280;63021;52.836;6.376;2023-06-14T08:13:24;101945.88;;;21.79;39.73
55456;BME280;63021;52.836;6.376;2023-06-14T08:15:50;101950.91;;;21.82;39.41
55456;BME280;63021;52.836;6.376;2023-06-14T08:18:16;101948.66;;;21.86;39.57
55456;BME280;63021;52.836;6.376;2023-06-14T08:20:41;101949.09;;;21.89;39.68
55456;BME280;63021;52.836;6.376;2023-06-14T08:23:07;101930.59;;;21.93;39.01
55456;BME280;63021;52.836;6.376;2023-06-14T08:25:34;101937.72;;;22.01;39.23
55456;BME280;63021;52.836;6.376;2023-06-14T08:28:00;101937.59;;;22.09;38.92
55456;BME280;63021;52.836;6.376;2023-06-14T08:30:26;101933.25;;;22.14;39.10
55456;BME280;63021;52.836;6.376;2023-06-14T08:32:51;101926.59;;;22.17;38.40
55456;BME280;63021;52.836;6.376;2023-06-14T08:35:17;101941.44;;;22.21;38.54
55456;BME280;63021;52.836;6.376;2023-06-14T08:37:43;101940.63;;;22.27;38.65
55456;BME280;63021;52.836;6.376;2023-06-14T08:40:18;101938.34;;;22.31;37.56
55456;BME280;63021;52.836;6.376;2023-06-14T08:42:46;101939.66;;;22.35;37.49
55456;BME280;63021;52.836;6.376;2023-06-14T08:45:12;101928.00;;;22.35;37.86
55456;BME280;63021;52.836;6.376;2023-06-14T08:47:38;101930.31;;;22.38;37.63
55456;BME280;63021;52.836;6.376;2023-06-14T08:50:04;101924.66;;;22.39;37.12
55456;BME280;63021;52.836;6.376;2023-06-14T08:52:33;101935.78;;;22.44;37.38
55456;BME280;63021;52.836;6.376;2023-06-14T08:55:06;101926.41;;;22.47;37.25
55456;BME280;63021;52.836;6.376;2023-06-14T08:57:32;101928.50;;;22.52;36.67
55456;BME280;63021;52.836;6.376;2023-06-14T08:59:59;101933.53;;;22.55;36.32
55456;BME280;63021;52.836;6.376;2023-06-14T09:02:30;101929.59;;;22.57;36.63
55456;BME280;63021;52.836;6.376;2023-06-14T09:04:55;101933.97;;;22.58;36.54
55456;BME280;63021;52.836;6.376;2023-06-14T09:07:24;101940.03;;;22.60;35.93
55456;BME280;63021;52.836;6.376;2023-06-14T09:10:15;101935.22;;;22.62;35.46
55456;BME280;63021;52.836;6.376;2023-06-14T09:12:40;101933.38;;;22.63;35.13
55456;BME280;63021;52.836;6.376;2023-06-14T09:15:07;101932.97;;;22.66;35.08
55456;BME280;63021;52.836;6.376;2023-06-14T09:17:34;101934.25;;;22.70;35.42
55456;BME280;63021;52.836;6.376;2023-06-14T09:20:04;101924.84;;;22.73;35.93
55456;BME280;63021;52.836;6.376;2023-06-14T09:22:35;101940.13;;;22.80;35.66
55456;BME280;63021;52.836;6.376;2023-06-14T09:25:01;101922.63;;;22.83;35.32
55456;BME280;63021;52.836;6.376;2023-06-14T09:27:28;101941.84;;;22.88;35.18
55456;BME280;63021;52.836;6.376;2023-06-14T09:29:54;101935.38;;;22.89;34.88
55456;BME280;63021;52.836;6.376;2023-06-14T09:32:21;101937.69;;;22.92;34.59
55456;BME280;63021;52.836;6.376;2023-06-14T09:34:47;101928.69;;;22.92;34.71
55456;BME280;63021;52.836;6.376;2023-06-14T09:37:12;101929.31;;;22.94;34.65
55456;BME280;63021;52.836;6.376;2023-06-14T09:39:50;101936.03;;;22.98;35.09
55456;BME280;63021;52.836;6.376;2023-06-14T09:42:17;101941.91;;;23.01;35.47
55456;BME280;63021;52.836;6.376;2023-06-14T09:44:47;101934.78;;;23.07;35.18
55456;BME280;63021;52.836;6.376;2023-06-14T09:47:14;101940.72;;;23.11;34.51
55456;BME280;63021;52.836;6.376;2023-06-14T09:49:40;101931.31;;;23.13;34.95
55456;BME280;63021;52.836;6.376;2023-06-14T09:52:06;101923.38;;;23.18;34.95
55456;BME280;63021;52.836;6.376;2023-06-14T09:54:33;101936.38;;;23.23;34.77
55456;BME280;63021;52.836;6.376;2023-06-14T09:57:02;101924.44;;;23.24;34.53
55456;BME280;63021;52.836;6.376;2023-06-14T09:59:30;101921.94;;;23.29;34.32
55456;BME280;63021;52.836;6.376;2023-06-14T10:02:00;101921.13;;;23.35;34.58
55456;BME280;63021;52.836;6.376;2023-06-14T10:04:31;101914.03;;;23.41;34.46
55456;BME280;63021;52.836;6.376;2023-06-14T10:06:58;101934.09;;;23.47;34.04
55456;BME280;63021;52.836;6.376;2023-06-14T10:09:26;101919.28;;;23.49;33.73
55456;BME280;63021;52.836;6.376;2023-06-14T10:11:52;101922.59;;;23.51;33.30
55456;BME280;63021;52.836;6.376;2023-06-14T10:14:18;101923.88;;;23.56;33.55
55456;BME280;63021;52.836;6.376;2023-06-14T10:20:19;101918.44;;;23.69;33.92
55456;BME280;63021;52.836;6.376;2023-06-14T10:23:00;101913.44;;;23.73;33.79
55456;BME280;63021;52.836;6.376;2023-06-14T10:25:28;101912.78;;;23.77;34.18
55456;BME280;63021;52.836;6.376;2023-06-14T10:28:14;101913.41;;;23.86;33.81
55456;BME280;63021;52.836;6.376;2023-06-14T10:31:04;101920.78;;;23.92;33.76
55456;BME280;63021;52.836;6.376;2023-06-14T10:33:49;101909.69;;;23.94;33.49
55456;BME280;63021;52.836;6.376;2023-06-14T10:36:28;101906.34;;;23.98;33.47
55456;BME280;63021;52.836;6.376;2023-06-14T10:39:18;101917.84;;;24.07;32.93
55456;BME280;63021;52.836;6.376;2023-06-14T10:41:52;101913.00;;;24.09;32.38
55456;BME280;63021;52.836;6.376;2023-06-14T10:46:48;101916.16;;;24.13;32.37
55456;BME280;63021;52.836;6.376;2023-06-14T10:49:17;101913.22;;;24.21;32.21
55456;BME280;63021;52.836;6.376;2023-06-14T10:51:50;101916.13;;;24.26;32.03
55456;BME280;63021;52.836;6.376;2023-06-14T10:54:16;101910.91;;;24.31;31.18
55456;BME280;63021;52.836;6.376;2023-06-14T10:56:49;101903.75;;;24.37;31.19
55456;BME280;63021;52.836;6.376;2023-06-14T10:59:15;101902.69;;;24.45;31.29
55456;BME280;63021;52.836;6.376;2023-06-14T11:04:52;101906.41;;;24.64;32.10
55456;BME280;63021;52.836;6.376;2023-06-14T11:12:47;101887.28;;;24.84;30.67
55456;BME280;63021;52.836;6.376;2023-06-14T11:15:12;101886.84;;;24.87;30.18
55456;BME280;63021;52.836;6.376;2023-06-14T11:17:38;101887.03;;;24.92;30.35
55456;BME280;63021;52.836;6.376;2023-06-14T11:20:08;101887.38;;;25.02;31.15
55456;BME280;63021;52.836;6.376;2023-06-14T11:22:41;101889.81;;;25.17;30.96
55456;BME280;63021;52.836;6.376;2023-06-14T11:25:13;101891.63;;;25.30;30.64
55456;BME280;63021;52.836;6.376;2023-06-14T11:27:45;101888.66;;;25.38;30.24
55456;BME280;63021;52.836;6.376;2023-06-14T11:30:12;101881.69;;;25.42;29.94
55456;BME280;63021;52.836;6.376;2023-06-14T11:32:39;101878.53;;;25.46;29.84
55456;BME280;63021;52.836;6.376;2023-06-14T11:35:06;101873.44;;;25.56;29.41
55456;BME280;63021;52.836;6.376;2023-06-14T11:37:32;101883.91;;;25.59;29.79
55456;BME280;63021;52.836;6.376;2023-06-14T11:40:03;101883.59;;;25.67;29.38
55456;BME280;63021;52.836;6.376;2023-06-14T11:42:33;101873.91;;;25.71;29.04
55456;BME280;63021;52.836;6.376;2023-06-14T11:44:59;101869.69;;;25.75;29.52
55456;BME280;63021;52.836;6.376;2023-06-14T11:47:25;101872.72;;;25.86;29.90
55456;BME280;63021;52.836;6.376;2023-06-14T11:49:58;101876.84;;;25.95;29.26
55456;BME280;63021;52.836;6.376;2023-06-14T11:52:24;101878.31;;;25.98;28.44
55456;BME280;63021;52.836;6.376;2023-06-14T11:54:52;101872.19;;;26.02;28.51
55456;BME280;63021;52.836;6.376;2023-06-14T11:57:18;101863.34;;;26.07;28.30
55456;BME280;63021;52.836;6.376;2023-06-14T11:59:44;101889.56;;;26.08;28.67
55456;BME280;63021;52.836;6.376;2023-06-14T12:02:17;101871.69;;;26.12;28.62
55456;BME280;63021;52.836;6.376;2023-06-14T12:04:47;101864.72;;;26.16;28.70
55456;BME280;63021;52.836;6.376;2023-06-14T12:07:14;101860.63;;;26.25;28.88
55456;BME280;63021;52.836;6.376;2023-06-14T12:12:26;101870.72;;;26.43;28.29
55456;BME280;63021;52.836;6.376;2023-06-14T12:14:53;101876.69;;;26.52;27.72
55456;BME280;63021;52.836;6.376;2023-06-14T12:17:19;101877.28;;;26.54;27.79
55456;BME280;63021;52.836;6.376;2023-06-14T12:19:45;101873.50;;;26.55;27.48
55456;BME280;63021;52.836;6.376;2023-06-14T12:22:12;101876.34;;;26.60;27.82
55456;BME280;63021;52.836;6.376;2023-06-14T12:24:39;101883.25;;;26.63;27.04
55456;BME280;63021;52.836;6.376;2023-06-14T12:27:05;101872.53;;;26.68;26.90
55456;BME280;63021;52.836;6.376;2023-06-14T12:29:31;101872.66;;;26.73;27.10
55456;BME280;63021;52.836;6.376;2023-06-14T12:31:57;101885.84;;;26.76;26.80
55456;BME280;63021;52.836;6.376;2023-06-14T12:34:23;101865.44;;;26.79;27.25
55456;BME280;63021;52.836;6.376;2023-06-14T12:36:50;101874.00;;;26.83;27.06
55456;BME280;63021;52.836;6.376;2023-06-14T12:39:16;101858.69;;;26.82;27.24
55456;BME280;63021;52.836;6.376;2023-06-14T12:41:42;101863.22;;;26.88;26.63
55456;BME280;63021;52.836;6.376;2023-06-14T12:44:07;101861.69;;;26.92;26.76
55456;BME280;63021;52.836;6.376;2023-06-14T12:46:33;101872.16;;;26.95;26.87
55456;BME280;63021;52.836;6.376;2023-06-14T12:49:00;101878.00;;;26.99;27.01
55456;BME280;63021;52.836;6.376;2023-06-14T12:51:25;101855.66;;;27.02;26.88
55456;BME280;63021;52.836;6.376;2023-06-14T12:53:51;101863.31;;;27.11;26.96
55456;BME280;63021;52.836;6.376;2023-06-14T12:56:16;101866.88;;;27.24;27.91
55456;BME280;63021;52.836;6.376;2023-06-14T12:58:42;101868.38;;;27.38;27.33
55456;BME280;63021;52.836;6.376;2023-06-14T13:01:07;101867.31;;;27.51;27.70
55456;BME280;63021;52.836;6.376;2023-06-14T13:03:33;101864.84;;;27.61;26.79
55456;BME280;63021;52.836;6.376;2023-06-14T13:06:00;101870.34;;;27.61;25.88
55456;BME280;63021;52.836;6.376;2023-06-14T13:08:26;101871.72;;;27.64;25.94
55456;BME280;63021;52.836;6.376;2023-06-14T13:10:52;101874.03;;;27.67;26.58